Time;durP1;ratioP1;P1;durP2;ratioP2;P2;SDS_P1;SDS_P2;PMS_P1;PMS_P2;Temp;Humidity;BMP_temperature;BMP_pressure;BME280_temperature;BME280_humidity;BME280_pressure;Samples;Min_cycle;Max_cycle;Signal;HPM_P1;HPM_P2
2022/01/17 00:01:01;;;;;;;6.88;2.60;;;;;;;11.18;48.21;102056.66;5119572;27;20039;-73
2022/01/17 00:03:28;;;;;;;6.97;3.80;;;;;;;11.21;48.41;102051.50;5119532;27;20046;-73
2022/01/17 00:05:58;;;;;;;8.75;2.53;;;;;;;11.24;48.25;102048.94;5114154;27;20047;-73
2022/01/17 00:08:25;;;;;;;6.07;2.30;;;;;;;11.24;48.01;102048.03;5115297;27;20047;-73
2022/01/17 00:10:53;;;;;;;9.25;4.50;;;;;;;11.25;47.69;102052.47;5119994;27;20084;-73
2022/01/17 00:13:27;;;;;;;7.95;3.35;;;;;;;11.24;47.39;102050.66;5126323;27;20047;-73
2022/01/17 00:15:59;;;;;;;6.03;2.60;;;;;;;11.25;47.28;102068.34;5120036;27;20054;-73
2022/01/17 00:18:51;;;;;;;7.60;4.53;;;;;;;11.21;47.17;102066.44;5110712;27;20423;-73
2022/01/17 00:21:19;;;;;;;9.68;4.20;;;;;;;11.18;46.88;102056.66;5096893;27;20392;-74
2022/01/17 00:23:46;;;;;;;9.43;3.80;;;;;;;11.16;46.91;102061.88;5122008;27;20503;-73
2022/01/17 00:26:14;;;;;;;7.75;4.30;;;;;;;11.18;47.28;102067.22;5108944;27;20043;-73
2022/01/17 00:28:42;;;;;;;7.88;3.10;;;;;;;11.18;46.93;102061.94;5111024;27;20111;-73
2022/01/17 00:31:09;;;;;;;8.40;3.97;;;;;;;11.17;46.81;102062.78;5119844;27;20085;-73
2022/01/17 00:33:37;;;;;;;7.97;3.80;;;;;;;11.14;46.75;102062.69;5109962;27;20047;-73
2022/01/17 00:36:05;;;;;;;14.48;3.75;;;;;;;11.13;46.78;102052.97;5109188;28;20047;-73
2022/01/17 00:38:34;;;;;;;8.60;3.97;;;;;;;11.16;46.85;102053.06;5108436;27;20050;-73
2022/01/17 00:41:02;;;;;;;13.10;4.97;;;;;;;11.17;46.75;102058.41;5109553;27;20100;-73
2022/01/17 00:43:30;;;;;;;12.38;5.35;;;;;;;11.22;46.81;102060.31;5100925;27;20035;-73
2022/01/17 00:45:57;;;;;;;13.77;5.68;;;;;;;11.24;46.82;102066.53;5127503;27;20035;-73
2022/01/17 00:48:25;;;;;;;10.73;4.88;;;;;;;11.27;47.34;102064.91;5130195;27;20122;-72
2022/01/17 00:50:52;;;;;;;16.95;7.68;;;;;;;11.29;47.70;102054.41;5127873;27;20031;-73
2022/01/17 00:53:20;;;;;;;10.65;4.78;;;;;;;11.30;47.68;102058.81;5117726;27;20092;-73
2022/01/17 00:55:49;;;;;;;12.18;4.90;;;;;;;11.31;47.89;102052.66;5111668;27;20036;-73
2022/01/17 00:58:17;;;;;;;7.28;4.15;;;;;;;11.31;48.21;102053.56;5129900;27;20502;-73
2022/01/17 01:00:45;;;;;;;6.00;3.75;;;;;;;11.32;48.40;102062.41;5128309;27;20572;-73
2022/01/17 01:03:13;;;;;;;8.52;4.03;;;;;;;11.30;48.55;102059.69;5108805;27;20055;-73
2022/01/17 01:05:40;;;;;;;8.60;4.75;;;;;;;11.31;48.42;102053.56;5114307;27;20513;-73
2022/01/17 01:08:09;;;;;;;5.07;2.53;;;;;;;11.32;48.51;102055.38;5120152;27;20043;-73
2022/01/17 01:10:36;;;;;;;6.63;2.60;;;;;;;11.32;48.54;102058.03;5110258;27;20123;-73
2022/01/17 01:13:06;;;;;;;5.00;2.75;;;;;;;11.34;48.61;102053.69;5110657;27;20063;-73
2022/01/17 01:15:57;;;;;;;7.82;2.88;;;;;;;11.33;48.58;102053.63;5111511;27;21609;-73
2022/01/17 01:18:38;;;;;;;10.25;3.80;;;;;;;11.30;48.58;102062.34;5106997;27;20043;-73
2022/01/17 01:29:27;;;;;;;7.35;3.25;;;;;;;11.26;49.05;102055.19;5109102;27;20163;-73
2022/01/17 01:31:59;;;;;;;8.20;2.75;;;;;;;11.22;49.11;102048.00;5128513;27;20092;-73
2022/01/17 01:34:33;;;;;;;11.05;2.92;;;;;;;11.21;49.01;102047.94;5128201;27;20123;-73
2022/01/17 01:37:02;;;;;;;8.23;3.22;;;;;;;11.22;48.95;102068.25;5110571;27;20043;-73
2022/01/17 01:39:30;;;;;;;7.10;3.47;;;;;;;11.21;49.17;102064.69;5120079;27;20435;-74
2022/01/17 01:41:58;;;;;;;13.27;4.70;;;;;;;11.19;49.14;102063.75;5142790;27;20114;-73
2022/01/17 01:44:28;;;;;;;21.38;8.68;;;;;;;11.18;49.14;102056.66;5109323;27;20388;-73
2022/01/17 01:46:57;;;;;;;10.07;3.13;;;;;;;11.17;49.28;102061.03;5107731;27;20123;-73
2022/01/17 01:49:26;;;;;;;8.07;2.95;;;;;;;11.13;49.05;102055.59;5124584;27;20089;-73
2022/01/17 01:51:55;;;;;;;6.47;2.80;;;;;;;11.13;49.10;102059.16;5132278;27;20035;-73
2022/01/17 01:54:22;;;;;;;7.78;2.78;;;;;;;11.14;48.93;102060.06;5148207;27;20134;-73
2022/01/17 01:56:51;;;;;;;9.48;3.22;;;;;;;11.13;48.70;102060.91;5114247;27;20048;-73
2022/01/17 01:59:22;;;;;;;9.25;3.33;;;;;;;11.11;48.75;102058.19;5113580;27;20499;-73
2022/01/17 02:01:52;;;;;;;10.98;3.65;;;;;;;11.11;48.83;102054.66;5118535;27;20039;-73
2022/01/17 02:04:20;;;;;;;8.50;2.75;;;;;;;11.08;48.88;102052.81;5131052;27;20050;-73
2022/01/17 02:06:48;;;;;;;6.32;2.17;;;;;;;11.11;48.61;102065.22;5118606;27;20276;-73
2022/01/17 02:09:15;;;;;;;6.95;3.00;;;;;;;11.12;48.56;102059.09;5114056;27;20224;-73
2022/01/17 02:11:43;;;;;;;6.45;2.63;;;;;;;11.09;48.46;102059.00;5116129;27;20046;-73
2022/01/17 02:14:10;;;;;;;7.68;2.53;;;;;;;11.05;48.58;102050.06;5131787;27;20039;-73
2022/01/17 02:16:40;;;;;;;5.75;2.75;;;;;;;11.03;48.66;102053.47;5115425;27;20047;-73
2022/01/17 02:19:09;;;;;;;5.63;2.50;;;;;;;11.01;48.50;102047.25;5119098;27;20123;-73
2022/01/17 02:21:46;;;;;;;6.40;4.15;;;;;;;10.97;48.71;102061.19;5118494;27;20042;-73
2022/01/17 02:24:16;;;;;;;5.03;2.70;;;;;;;10.91;48.71;102059.25;5131573;27;20043;-73
2022/01/17 02:26:44;;;;;;;8.05;5.20;;;;;;;10.88;48.63;102060.91;5113961;27;20044;-73
2022/01/17 02:29:12;;;;;;;5.47;3.13;;;;;;;10.87;48.74;102061.72;5125590;27;20103;-72
2022/01/17 02:31:41;;;;;;;4.13;2.47;;;;;;;10.87;48.74;102051.16;5117066;27;20035;-73
2022/01/17 02:34:09;;;;;;;7.90;2.67;;;;;;;10.85;48.61;102044.91;5145062;27;20518;-73
2022/01/17 02:36:38;;;;;;;5.32;2.30;;;;;;;10.79;48.73;102041.22;5111645;27;20089;-73
2022/01/17 02:39:06;;;;;;;7.13;2.90;;;;;;;10.71;48.73;102055.91;5145004;27;20093;-73
2022/01/17 02:41:35;;;;;;;5.70;2.80;;;;;;;10.66;48.94;102056.59;5114015;27;20408;-73
2022/01/17 02:44:05;;;;;;;5.70;2.42;;;;;;;10.60;48.95;102051.09;5112426;27;20046;-73
2022/01/17 02:46:33;;;;;;;4.30;2.20;;;;;;;10.55;48.97;102050.03;5124585;27;20437;-73
2022/01/17 02:49:02;;;;;;;5.10;3.35;;;;;;;10.49;49.31;102052.44;5112476;27;20097;-73
2022/01/17 02:51:30;;;;;;;8.10;3.53;;;;;;;10.34;49.43;102051.03;5145525;27;20167;-73
2022/01/17 02:54:00;;;;;;;5.85;2.58;;;;;;;10.24;49.85;102062.06;5112388;27;20035;-73
2022/01/17 02:56:28;;;;;;;5.57;3.05;;;;;;;10.18;49.60;102064.47;5111097;27;20109;-73
2022/01/17 02:58:56;;;;;;;5.97;2.67;;;;;;;10.15;49.52;102059.06;5119173;27;20063;-73
2022/01/17 03:01:43;;;;;;;5.43;2.58;;;;;;;10.08;49.36;102064.94;5110755;27;20097;-73
2022/01/17 03:04:11;;;;;;;19.13;3.78;;;;;;;10.02;49.71;102064.72;5114415;27;20043;-73
2022/01/17 03:06:39;;;;;;;7.38;4.15;;;;;;;9.99;49.51;102064.56;5111939;27;20097;-73
2022/01/17 03:09:08;;;;;;;6.50;3.17;;;;;;;9.96;49.68;102065.38;5128094;27;20067;-73
2022/01/17 03:11:35;;;;;;;6.65;3.03;;;;;;;9.88;49.75;102063.28;5118962;27;20511;-73
2022/01/17 03:14:03;;;;;;;6.00;2.63;;;;;;;9.81;49.92;102062.13;5127910;27;20697;-73
2022/01/17 03:16:34;;;;;;;7.07;2.60;;;;;;;9.78;49.97;102066.41;5115483;27;20131;-72
2022/01/17 03:19:02;;;;;;;6.03;2.30;;;;;;;9.71;49.99;102062.63;5104743;27;20181;-72
2022/01/17 03:21:32;;;;;;;7.05;3.40;;;;;;;9.68;50.09;102067.75;5131074;27;20453;-73
2022/01/17 03:24:00;;;;;;;8.50;4.65;;;;;;;9.64;50.43;102071.13;5132246;27;20084;-73
2022/01/17 03:26:30;;;;;;;10.07;5.13;;;;;;;9.62;50.97;102069.25;5130546;27;20075;-73
2022/01/17 03:28:59;;;;;;;8.50;4.95;;;;;;;9.57;51.14;102074.34;5117843;27;20047;-73
2022/01/17 03:31:26;;;;;;;11.02;6.22;;;;;;;9.52;51.53;102075.88;5114069;27;20075;-73
2022/01/17 03:33:55;;;;;;;9.13;4.45;;;;;;;9.48;51.55;102080.13;5110266;27;20043;-73
2022/01/17 03:36:22;;;;;;;5.35;2.90;;;;;;;9.45;51.81;102079.13;5111635;27;20112;-72
2022/01/17 03:38:51;;;;;;;6.70;2.97;;;;;;;9.44;51.98;102087.84;5111576;27;20414;-73
2022/01/17 03:41:18;;;;;;;4.03;2.47;;;;;;;9.42;52.05;102087.78;5111580;27;20044;-73
2022/01/17 03:43:48;;;;;;;7.38;2.88;;;;;;;9.40;52.28;102089.44;5112287;27;20035;-73
2022/01/17 03:46:15;;;;;;;6.93;2.88;;;;;;;9.36;52.59;102091.91;5119846;27;20448;-73
2022/01/17 03:48:43;;;;;;;6.50;3.50;;;;;;;9.36;52.67;102086.63;5130762;27;20091;-72
2022/01/17 03:51:11;;;;;;;6.35;2.90;;;;;;;9.35;53.07;102092.72;5117589;27;20032;-73
2022/01/17 03:53:39;;;;;;;7.05;3.03;;;;;;;9.30;53.15;102084.66;5129923;27;20035;-73
2022/01/17 03:56:07;;;;;;;7.70;3.05;;;;;;;9.24;53.62;102088.75;5125496;27;20046;-73
2022/01/17 03:58:34;;;;;;;4.93;2.50;;;;;;;9.18;53.75;102082.41;5111316;27;20043;-73
2022/01/17 04:01:23;;;;;;;8.57;2.50;;;;;;;9.17;53.58;102087.59;5110614;27;20055;-73
2022/01/17 04:03:51;;;;;;;6.22;2.42;;;;;;;9.14;53.84;102087.44;5110727;27;20463;-73
2022/01/17 04:06:19;;;;;;;8.10;3.13;;;;;;;9.06;54.15;102081.84;5128318;27;20118;-72
2022/01/17 04:08:47;;;;;;;8.65;2.90;;;;;;;9.02;54.23;102084.31;5110978;27;20043;-73
2022/01/17 04:11:15;;;;;;;7.05;3.00;;;;;;;9.02;54.21;102085.19;5111693;27;20100;-73
2022/01/17 04:13:42;;;;;;;5.68;3.25;;;;;;;9.02;54.82;102100.09;5123590;27;20041;-73
2022/01/17 04:16:11;;;;;;;9.73;4.22;;;;;;;8.96;55.09;102100.75;5118859;27;20114;-73
2022/01/17 04:18:40;;;;;;;5.53;2.97;;;;;;;8.96;55.25;102097.19;5127294;27;20035;-74
2022/01/17 04:21:08;;;;;;;6.22;2.83;;;;;;;8.97;55.19;102091.09;5145623;27;20040;-72
2022/01/17 04:23:36;;;;;;;8.95;3.05;;;;;;;8.93;55.09;102097.06;5127966;27;20043;-73
2022/01/17 04:26:03;;;;;;;8.45;2.58;;;;;;;8.90;55.34;102103.09;5113610;27;20403;-73
2022/01/17 04:28:31;;;;;;;8.57;3.00;;;;;;;8.87;55.47;102110.84;5124428;27;20043;-73
2022/01/17 04:31:00;;;;;;;7.35;2.95;;;;;;;8.86;55.49;102119.59;5109946;27;20045;-73
2022/01/17 04:33:28;;;;;;;5.10;2.38;;;;;;;8.84;55.67;102116.00;5123254;27;20133;-73
2022/01/17 04:35:57;;;;;;;4.85;2.45;;;;;;;8.83;55.89;102118.56;5129053;27;20449;-73
2022/01/17 04:38:25;;;;;;;5.45;2.80;;;;;;;8.81;56.13;102115.84;5104082;27;20062;-73
2022/01/17 04:41:01;;;;;;;5.30;2.67;;;;;;;8.81;56.05;102118.50;5122026;27;20081;-72
2022/01/17 04:43:45;;;;;;;10.20;4.53;;;;;;;8.86;56.04;102129.25;5111580;27;20096;-73
2022/01/17 04:46:13;;;;;;;9.53;4.17;;;;;;;8.91;56.19;102131.25;5103792;27;20092;-73
2022/01/17 04:48:41;;;;;;;10.55;4.57;;;;;;;8.96;56.22;102140.25;5110619;27;20350;-72
2022/01/17 04:51:10;;;;;;;13.23;8.52;;;;;;;9.04;56.14;102141.50;5143592;27;20498;-73
2022/01/17 04:53:39;;;;;;;9.27;3.95;;;;;;;9.11;56.18;102129.50;5123130;27;20035;-73
2022/01/17 04:56:07;;;;;;;7.60;3.97;;;;;;;9.15;55.98;102139.31;5129057;27;20035;-73
2022/01/17 04:58:35;;;;;;;10.55;6.40;;;;;;;9.13;56.14;102135.69;5130381;27;20050;-73
2022/01/17 05:01:03;;;;;;;9.65;6.10;;;;;;;9.10;56.44;102146.13;5109928;27;20036;-73
2022/01/17 05:03:31;;;;;;;9.75;4.10;;;;;;;8.99;57.07;102147.41;5108348;27;20134;-73
2022/01/17 05:05:58;;;;;;;7.60;3.60;;;;;;;8.82;57.46;102143.09;5119173;27;20046;-73
2022/01/17 05:08:27;;;;;;;7.45;3.70;;;;;;;8.75;57.97;102145.44;5118225;27;20130;-73
2022/01/17 05:10:56;;;;;;;7.60;3.22;;;;;;;8.70;58.01;102154.88;5130092;27;20084;-73
2022/01/17 05:13:31;;;;;;;6.55;2.95;;;;;;;8.69;58.23;102162.69;5115758;27;20483;-72
2022/01/17 05:16:08;;;;;;;7.60;2.83;;;;;;;8.70;57.94;102152.25;5121516;27;20466;-73
2022/01/17 05:21:21;;;;;;;9.27;3.10;;;;;;;8.61;58.59;102159.72;5122421;27;20070;-73
2022/01/17 05:23:50;;;;;;;9.57;3.58;;;;;;;8.63;58.73;102162.41;5128937;27;20431;-73
2022/01/17 05:26:18;;;;;;;8.38;3.28;;;;;;;8.65;58.67;102159.03;5108615;27;20039;-73
2022/01/17 05:28:45;;;;;;;7.82;3.90;;;;;;;8.69;58.69;102153.06;5110203;27;20380;-73
2022/01/17 05:31:14;;;;;;;5.32;3.63;;;;;;;8.73;58.39;102155.00;5110820;27;20074;-73
2022/01/17 05:33:42;;;;;;;10.40;4.55;;;;;;;8.73;58.43;102149.72;5137932;27;20066;-73
2022/01/17 05:36:11;;;;;;;10.50;6.32;;;;;;;8.71;58.56;102150.53;5139539;27;20088;-73
2022/01/17 05:38:38;;;;;;;9.13;5.28;;;;;;;8.69;58.60;102158.34;5108475;27;20123;-73
2022/01/17 05:41:08;;;;;;;12.23;9.35;;;;;;;8.68;58.97;102160.88;5112396;28;20046;-73
2022/01/17 05:43:35;;;;;;;10.50;4.40;;;;;;;8.60;59.64;102160.53;5109379;27;20093;-73
2022/01/17 05:46:03;;;;;;;5.65;3.25;;;;;;;8.63;59.61;102155.44;5120963;27;20050;-73
2022/01/17 05:48:30;;;;;;;7.88;3.08;;;;;;;8.65;59.51;102160.78;5114476;27;20126;-73
2022/01/17 05:50:58;;;;;;;7.47;2.90;;;;;;;8.65;59.45;102158.13;5118830;27;20035;-73
2022/01/17 05:53:25;;;;;;;7.75;4.20;;;;;;;8.71;59.23;102161.94;5129583;27;20039;-73
2022/01/17 05:55:53;;;;;;;8.52;5.03;;;;;;;8.77;59.47;102159.59;5110770;27;20039;-73
2022/01/17 05:58:22;;;;;;;10.88;4.80;;;;;;;8.84;59.63;102159.88;5126888;27;20126;-73
2022/01/17 06:00:50;;;;;;;9.25;7.50;;;;;;;8.77;60.19;102164.84;5119546;27;20123;-73
2022/01/17 06:03:18;;;;;;;9.68;5.63;;;;;;;8.74;60.40;102158.53;5120942;27;20054;-73
2022/01/17 06:05:45;;;;;;;7.32;3.20;;;;;;;8.87;60.29;102152.09;5125217;27;20045;-73
2022/01/17 06:08:13;;;;;;;8.43;3.35;;;;;;;9.03;59.61;102157.22;5122883;27;20131;-73
2022/01/17 06:10:40;;;;;;;10.65;3.30;;;;;;;9.16;59.48;102157.81;5108813;27;20057;-73
2022/01/17 06:13:08;;;;;;;6.80;2.65;;;;;;;9.18;59.13;102153.53;5119791;27;20107;-73
2022/01/17 06:15:37;;;;;;;8.77;4.18;;;;;;;9.20;59.31;102150.94;5125223;27;20491;-72
2022/01/17 06:18:05;;;;;;;8.20;4.50;;;;;;;9.26;59.38;102151.19;5110376;27;20126;-73
2022/01/17 06:20:33;;;;;;;11.68;7.75;;;;;;;9.29;59.49;102153.97;5123769;27;20093;-73
2022/01/17 06:23:00;;;;;;;18.63;10.32;;;;;;;9.29;59.97;102153.97;5117815;27;20050;-73
2022/01/17 06:25:28;;;;;;;12.13;7.45;;;;;;;9.31;60.21;102152.31;5096164;27;20043;-73
2022/01/17 06:27:56;;;;;;;12.48;8.63;;;;;;;9.28;60.18;102146.91;5124148;27;20201;-73
2022/01/17 06:30:24;;;;;;;9.85;5.75;;;;;;;9.38;60.88;102142.94;5096352;27;20092;-73
2022/01/17 06:32:53;;;;;;;7.07;3.50;;;;;;;9.67;60.72;102139.78;5111544;28;20043;-74
2022/01/17 06:35:21;;;;;;;7.55;3.97;;;;;;;10.18;60.35;102135.72;5107776;27;20047;-73
2022/01/17 06:37:48;;;;;;;6.07;3.10;;;;;;;10.76;60.31;102140.59;5110351;27;20043;-73
2022/01/17 06:40:16;;;;;;;5.57;3.20;;;;;;;11.31;60.20;102139.91;5145239;27;20071;-73
2022/01/17 06:42:44;;;;;;;5.45;3.03;;;;;;;11.64;59.49;102146.34;5097402;27;20144;-73
2022/01/17 06:45:13;;;;;;;9.27;2.78;;;;;;;11.80;58.51;102139.88;5112493;27;20055;-74
2022/01/17 06:47:41;;;;;;;8.00;2.72;;;;;;;11.76;58.32;102137.94;5113208;27;20495;-73
2022/01/17 06:50:11;;;;;;;5.22;2.30;;;;;;;11.78;58.23;102147.75;5123185;27;20118;-73
2022/01/17 06:52:39;;;;;;;5.80;2.72;;;;;;;12.10;57.68;102142.59;5125654;27;20039;-73
2022/01/17 06:55:07;;;;;;;5.28;2.30;;;;;;;12.07;57.29;102140.75;5106618;27;20539;-74
2022/01/17 06:57:35;;;;;;;4.43;2.25;;;;;;;12.02;57.16;102142.34;5111845;27;20032;-73
2022/01/17 07:00:04;;;;;;;5.00;2.25;;;;;;;11.96;57.08;102139.50;5130200;27;20067;-73
2022/01/17 07:02:32;;;;;;;4.78;2.10;;;;;;;11.81;56.85;102136.38;5111419;27;20088;-73
2022/01/17 07:04:59;;;;;;;6.07;2.35;;;;;;;11.68;56.56;102148.28;5125901;27;20116;-73
2022/01/17 07:07:28;;;;;;;4.65;2.10;;;;;;;11.64;56.42;102153.38;5112664;27;20492;-73
2022/01/17 07:09:56;;;;;;;5.97;2.17;;;;;;;11.57;56.71;102157.56;5111718;27;20432;-73
2022/01/17 07:12:24;;;;;;;6.15;2.40;;;;;;;11.57;56.62;102155.81;5106500;27;20036;-73
2022/01/17 07:14:52;;;;;;;6.45;2.78;;;;;;;11.62;56.51;102148.03;5111498;27;20035;-73
2022/01/17 07:17:20;;;;;;;8.85;3.63;;;;;;;11.64;56.48;102154.28;5110376;27;20051;-73
2022/01/17 07:19:47;;;;;;;14.15;10.27;;;;;;;11.98;56.53;102159.88;5112677;27;20062;-73
2022/01/17 07:22:15;;;;;;;11.10;6.20;;;;;;;12.05;56.64;102168.91;5110169;27;20560;-73
2022/01/17 07:24:47;;;;;;;8.30;3.55;;;;;;;12.27;56.73;102165.22;5110715;27;20181;-73
2022/01/17 07:27:15;;;;;;;6.55;2.63;;;;;;;12.33;56.64;102176.00;5111032;27;20528;-74
2022/01/17 07:29:44;;;;;;;5.70;1.80;;;;;;;12.57;56.45;102176.72;5113356;27;20089;-73
2022/01/17 07:32:11;;;;;;;5.18;1.60;;;;;;;12.50;56.51;102172.09;5111079;27;20048;-74
2022/01/17 07:34:39;;;;;;;3.50;1.67;;;;;;;12.37;56.78;102167.28;5113331;27;20064;-73
2022/01/17 07:37:06;;;;;;;4.50;1.63;;;;;;;12.30;56.96;102166.19;5111617;27;20496;-73
2022/01/17 07:39:34;;;;;;;3.55;1.65;;;;;;;12.37;56.84;102152.28;5115231;27;20787;-73
2022/01/17 07:42:03;;;;;;;8.88;3.45;;;;;;;12.65;56.90;102147.81;5128973;27;20066;-74
2022/01/17 07:44:34;;;;;;;10.02;3.97;;;;;;;12.85;56.44;102133.41;5119964;27;20123;-73
2022/01/17 07:47:04;;;;;;;5.35;2.17;;;;;;;12.83;54.58;102116.53;5119584;27;20046;-72
2022/01/17 07:49:33;;;;;;;3.08;1.25;;;;;;;12.88;54.70;102116.66;5115756;27;20043;-73
2022/01/17 07:52:02;;;;;;;5.05;1.70;;;;;;;13.28;54.39;102119.59;5115239;27;20043;-73
2022/01/17 07:54:33;;;;;;;2.95;1.20;;;;;;;13.28;53.63;102114.28;5118461;27;20051;-73
2022/01/17 07:57:05;;;;;;;4.93;1.27;;;;;;;13.14;53.83;102134.22;5121630;27;20085;-73
2022/01/17 07:59:32;;;;;;;11.75;4.95;;;;;;;13.12;53.52;102144.81;5129225;27;20039;-73
2022/01/17 08:02:01;;;;;;;3.83;1.67;;;;;;;13.80;53.34;102181.94;5122338;27;20040;-73
2022/01/17 08:04:29;;;;;;;7.15;1.70;;;;;;;14.56;51.67;102205.97;5115588;27;20047;-73
2022/01/17 08:06:56;;;;;;;3.55;1.25;;;;;;;14.83;50.88;102223.41;5125774;27;20074;-74
2022/01/17 08:09:29;;;;;;;2.65;1.42;;;;;;;14.83;49.27;102226.94;5114537;27;20127;-74
2022/01/17 08:11:56;;;;;;;2.72;1.17;;;;;;;14.80;50.35;102253.47;5109505;27;20123;-74
2022/01/17 08:14:26;;;;;;;3.00;1.17;;;;;;;14.51;49.83;102249.22;5109226;27;20120;-74
2022/01/17 08:16:54;;;;;;;3.15;1.30;;;;;;;14.63;49.14;102223.84;5108724;27;20044;-74
2022/01/17 08:19:23;;;;;;;5.35;2.92;;;;;;;14.40;48.98;102216.19;5110709;27;20067;-73
2022/01/17 08:21:52;;;;;;;6.22;2.47;;;;;;;14.20;49.53;102197.09;5112401;27;20043;-73
2022/01/17 08:24:20;;;;;;;4.97;1.08;;;;;;;13.95;49.59;102193.84;5113292;27;20039;-73
2022/01/17 08:26:50;;;;;;;2.90;1.20;;;;;;;13.72;49.58;102197.66;5123394;27;20469;-73
2022/01/17 08:29:19;;;;;;;6.35;1.55;;;;;;;13.68;49.68;102198.47;5112102;27;20096;-73
2022/01/17 08:31:48;;;;;;;3.92;1.15;;;;;;;14.31;49.54;102217.72;5126055;27;20404;-73
2022/01/17 08:34:17;;;;;;;2.88;1.42;;;;;;;14.97;49.14;102240.50;5110383;27;20410;-73
2022/01/17 08:36:45;;;;;;;3.83;1.20;;;;;;;15.34;47.64;102242.19;5109492;27;20031;-73
2022/01/17 08:39:13;;;;;;;2.78;1.10;;;;;;;15.69;47.81;102265.06;5145444;27;20050;-74
2022/01/17 08:41:42;;;;;;;3.97;1.20;;;;;;;16.11;47.81;102301.38;5121254;27;20431;-74
2022/01/17 08:44:10;;;;;;;5.57;2.03;;;;;;;16.31;46.49;102283.94;5127220;27;20040;-74
2022/01/17 08:46:38;;;;;;;4.15;1.00;;;;;;;16.63;46.24;102279.16;5143000;27;20485;-74
2022/01/17 08:49:08;;;;;;;2.40;1.00;;;;;;;16.64;46.47;102280.94;5120337;27;20589;-74
2022/01/17 08:51:35;;;;;;;4.13;1.40;;;;;;;16.22;46.78;102235.81;5118200;27;20039;-74
2022/01/17 08:54:03;;;;;;;7.13;2.80;;;;;;;16.25;46.48;102231.44;5110789;27;20040;-74
2022/01/17 08:56:31;;;;;;;3.00;1.23;;;;;;;16.39;45.39;102201.44;5114135;27;20486;-74
2022/01/17 08:59:00;;;;;;;5.00;2.10;;;;;;;16.47;45.04;102200.69;5114894;27;20119;-74
2022/01/17 09:01:27;;;;;;;2.28;1.00;;;;;;;16.59;44.21;102211.53;5123031;27;20043;-74
2022/01/17 09:03:55;;;;;;;4.22;1.00;;;;;;;16.86;44.05;102202.16;5118114;27;20556;-74
2022/01/17 09:06:25;;;;;;;2.90;1.10;;;;;;;17.06;43.67;102203.28;5111150;27;20517;-74
2022/01/17 09:08:53;;;;;;;1.98;0.95;;;;;;;17.22;43.31;102183.91;5109913;27;20070;-74
2022/01/17 09:11:20;;;;;;;3.63;1.60;;;;;;;17.35;42.94;102180.47;5142576;27;20491;-74
2022/01/17 09:13:48;;;;;;;6.50;2.35;;;;;;;17.46;42.80;102144.09;5108178;27;20035;-74
2022/01/17 09:16:16;;;;;;;3.53;1.00;;;;;;;17.51;41.56;102136.16;5142276;27;20503;-74
2022/01/17 09:18:44;;;;;;;3.50;1.02;;;;;;;17.52;41.34;102144.16;5109326;27;20183;-73
2022/01/17 09:21:12;;;;;;;2.97;1.48;;;;;;;17.63;41.40;102130.94;5125159;27;20054;-74
2022/01/17 09:23:42;;;;;;;6.38;2.75;;;;;;;17.81;41.50;102136.44;5125284;27;20036;-74
2022/01/17 09:26:10;;;;;;;5.20;1.60;;;;;;;17.91;41.07;102129.41;5125112;27;20043;-75
2022/01/17 09:28:38;;;;;;;4.88;1.70;;;;;;;18.01;40.70;102115.22;5109637;27;20491;-75
2022/01/17 09:31:06;;;;;;;4.20;2.10;;;;;;;18.10;40.51;102125.06;5090926;27;20097;-74
2022/01/17 09:33:35;;;;;;;4.85;1.40;;;;;;;18.17;40.03;102124.22;5108520;27;20093;-74
2022/01/17 09:36:03;;;;;;;7.38;2.58;;;;;;;18.25;40.06;102112.69;5109221;27;20111;-74
2022/01/17 09:38:31;;;;;;;3.40;1.60;;;;;;;18.27;39.63;102116.25;5141679;27;20085;-74
2022/01/17 09:41:01;;;;;;;3.00;1.60;;;;;;;18.18;38.83;102120.69;5107889;27;20126;-74
2022/01/17 09:43:29;;;;;;;5.97;1.85;;;;;;;18.15;39.13;102109.94;5109690;27;20116;-74
2022/01/17 09:45:58;;;;;;;9.15;3.25;;;;;;;18.23;38.48;102093.09;5109508;27;20063;-75
2022/01/17 09:48:34;;;;;;;6.03;2.72;;;;;;;18.27;37.97;102107.34;5108944;27;20104;-75
2022/01/17 09:51:11;;;;;;;13.93;6.20;;;;;;;18.24;37.75;102093.97;5107755;27;20043;-75
2022/01/17 09:53:39;;;;;;;10.90;5.50;;;;;;;18.21;37.60;102088.59;5109517;27;20042;-74
2022/01/17 09:56:09;;;;;;;17.60;8.88;;;;;;;18.26;37.33;102090.41;5109400;27;20044;-74
2022/01/17 09:58:38;;;;;;;5.95;2.10;;;;;;;18.26;37.09;102084.16;5108966;27;20097;-74
2022/01/17 10:01:06;;;;;;;6.88;3.38;;;;;;;18.17;36.54;102069.00;5108952;27;20123;-74
2022/01/17 10:03:34;;;;;;;4.57;2.25;;;;;;;18.02;36.25;102057.31;5125019;27;20089;-74
2022/01/17 10:06:01;;;;;;;3.55;1.95;;;;;;;17.81;35.92;102075.00;5109583;27;20047;-74
2022/01/17 10:08:29;;;;;;;4.65;2.13;;;;;;;17.72;36.28;102079.38;5108640;27;20488;-74
2022/01/17 10:10:59;;;;;;;6.47;3.28;;;;;;;17.78;36.95;102092.78;5109965;27;20457;-74
2022/01/17 10:13:32;;;;;;;4.55;1.90;;;;;;;17.99;36.91;102095.59;5112173;27;20054;-74
2022/01/17 10:16:11;;;;;;;6.30;2.47;;;;;;;18.08;37.03;102097.44;5113125;27;20036;-74
2022/01/17 10:18:41;;;;;;;4.30;2.00;;;;;;;18.10;36.83;102082.31;5113584;27;20096;-74
2022/01/17 10:21:13;;;;;;;9.68;4.28;;;;;;;18.14;36.75;102087.66;5112912;27;20476;-74
2022/01/17 10:24:07;;;;;;;7.13;3.38;;;;;;;18.24;36.25;102094.88;5128865;27;20500;-74
2022/01/17 10:26:59;;;;;;;6.18;2.15;;;;;;;18.30;36.21;102078.88;5128711;27;20068;-74
2022/01/17 10:35:17;;;;;;;3.40;1.75;;;;;;;17.88;34.74;102063.47;5058252;28;20119;-72
2022/01/17 10:37:57;;;;;;;9.68;4.68;;;;;;;17.74;34.48;102069.59;5104938;27;20047;-71
2022/01/17 10:40:26;;;;;;;5.40;2.83;;;;;;;17.74;34.97;102056.22;5103169;27;20402;-72
2022/01/17 10:42:55;;;;;;;4.45;2.42;;;;;;;17.86;35.01;102041.19;5112094;27;20122;-71
2022/01/17 10:45:29;;;;;;;1.98;0.90;;;;;;;17.90;34.58;102051.00;5145337;27;20043;-72
2022/01/17 10:47:59;;;;;;;4.75;1.30;;;;;;;17.91;34.52;102054.59;5111841;27;20040;-71
2022/01/17 10:50:29;;;;;;;4.55;2.13;;;;;;;17.91;34.71;102038.56;5112339;27;20040;-72
2022/01/17 10:52:58;;;;;;;5.40;2.30;;;;;;;17.96;35.02;102042.13;5112182;27;20498;-72
2022/01/17 10:55:28;;;;;;;3.88;1.35;;;;;;;17.86;34.96;102032.25;5111356;27;20115;-72
2022/01/17 10:57:58;;;;;;;3.55;1.42;;;;;;;17.83;35.40;102026.91;5112017;27;20440;-71
2022/01/17 11:00:31;;;;;;;6.22;2.53;;;;;;;17.75;35.31;102025.97;5112569;27;20052;-72
2022/01/17 11:03:01;;;;;;;5.80;2.70;;;;;;;17.70;35.62;102011.69;5112425;27;20035;-71
2022/01/17 11:05:31;;;;;;;4.15;1.40;;;;;;;17.42;36.06;102011.47;5112238;27;20067;-72
2022/01/17 11:08:01;;;;;;;5.00;1.10;;;;;;;17.21;36.47;102008.63;5112352;27;20123;-71
2022/01/17 11:10:31;;;;;;;2.10;1.00;;;;;;;16.95;36.83;102016.38;5111082;27;20039;-71
2022/01/17 11:13:02;;;;;;;4.40;2.65;;;;;;;16.80;37.04;101999.38;5144682;27;20127;-72
2022/01/17 11:15:33;;;;;;;4.43;1.70;;;;;;;16.71;36.77;102010.81;5145416;27;20056;-72
2022/01/17 11:18:05;;;;;;;5.22;1.52;;;;;;;16.68;36.64;101986.78;5144139;27;20063;-71
2022/01/17 11:20:35;;;;;;;3.80;1.60;;;;;;;16.69;36.83;101977.91;5112319;27;20039;-71
2022/01/17 11:23:04;;;;;;;4.55;1.13;;;;;;;16.69;37.14;101992.13;5109895;27;20028;-71
2022/01/17 11:25:33;;;;;;;2.95;1.27;;;;;;;16.56;37.33;102010.59;5110155;27;20067;-71
2022/01/17 11:28:03;;;;;;;4.65;1.15;;;;;;;16.53;37.37;102026.59;5110522;27;20119;-72
2022/01/17 11:30:34;;;;;;;3.10;1.50;;;;;;;16.51;37.67;102028.34;5127472;27;20040;-72
2022/01/17 11:33:04;;;;;;;5.57;1.85;;;;;;;16.49;37.64;102024.75;5110729;27;20063;-71
2022/01/17 11:35:34;;;;;;;3.35;1.58;;;;;;;16.47;37.80;102014.09;5111772;27;20051;-71
2022/01/17 11:38:03;;;;;;;4.05;1.33;;;;;;;16.34;37.69;102021.00;5110397;27;20087;-72
2022/01/17 11:40:34;;;;;;;5.10;1.98;;;;;;;16.31;37.98;102020.09;5111567;27;20131;-71
2022/01/17 11:43:15;;;;;;;3.75;1.67;;;;;;;16.38;38.20;102011.31;5111123;27;20043;-71
2022/01/17 11:45:46;;;;;;;7.05;2.40;;;;;;;16.42;38.40;102009.56;5112506;27;20122;-71
2022/01/17 11:48:29;;;;;;;5.70;2.72;;;;;;;16.56;38.35;102008.84;5115714;27;20054;-72
2022/01/17 11:50:59;;;;;;;3.73;1.43;;;;;;;16.59;38.41;102000.88;5119533;27;20073;-71
2022/01/17 11:53:42;;;;;;;3.17;1.60;;;;;;;16.72;38.59;102000.19;5114502;27;20503;-72